Time;durP1;ratioP1;P1;durP2;ratioP2;P2;SDS_P1;SDS_P2;PMS_P1;PMS_P2;Temp;Humidity;BMP_temperature;BMP_pressure;BME280_temperature;BME280_humidity;BME280_pressure;Samples;Min_cycle;Max_cycle;Signal;HPM_P1;HPM_P2
2022/10/20 00:00:54;;;;;;;23.83;17.73;;;11.90;83.80;;;10.53;100.00;96445.50;5006030;28;20057;-71
2022/10/20 00:03:20;;;;;;;27.00;20.42;;;12.00;83.80;;;10.56;100.00;96439.88;5002304;28;20037;-70
2022/10/20 00:05:46;;;;;;;28.45;21.25;;;12.00;83.80;;;10.60;100.00;96443.75;5002485;28;20030;-71
2022/10/20 00:08:12;;;;;;;32.25;22.08;;;12.00;83.90;;;10.63;100.00;96443.41;5003681;28;20719;-71
2022/10/20 00:10:37;;;;;;;32.33;22.85;;;12.10;83.90;;;10.66;100.00;96432.53;5001718;28;20538;-71
2022/10/20 00:13:03;;;;;;;33.03;23.45;;;12.10;83.90;;;10.69;100.00;96447.97;4999140;28;20142;-71
2022/10/20 00:15:29;;;;;;;33.58;24.35;;;12.20;83.90;;;10.73;100.00;96449.22;5009327;28;20133;-71
2022/10/20 00:17:54;;;;;;;29.98;23.45;;;12.20;83.90;;;10.77;100.00;96439.97;5005183;28;20046;-71
2022/10/20 00:20:20;;;;;;;31.92;24.88;;;12.30;83.80;;;10.78;100.00;96446.06;4998962;28;20062;-71
2022/10/20 00:22:46;;;;;;;30.83;23.20;;;12.20;83.70;;;10.81;100.00;96448.31;4999763;28;20105;-71
2022/10/20 00:25:12;;;;;;;32.25;23.67;;;12.30;83.70;;;10.82;100.00;96453.38;5004055;28;20041;-70
2022/10/20 00:27:37;;;;;;;32.15;25.00;;;12.30;83.70;;;10.83;100.00;96447.13;5003823;28;20522;-70
2022/10/20 00:30:04;;;;;;;32.60;23.75;;;12.30;83.70;;;10.84;100.00;96445.31;4998840;28;20490;-71
2022/10/20 00:32:30;;;;;;;28.63;24.45;;;12.30;83.70;;;10.86;100.00;96438.88;5005990;28;20096;-71
2022/10/20 00:34:55;;;;;;;33.47;26.33;;;12.30;83.60;;;10.87;100.00;96440.53;4997464;28;20109;-71
2022/10/20 00:37:21;;;;;;;31.13;25.60;;;12.20;83.70;;;10.89;100.00;96443.78;5003185;28;20506;-72
2022/10/20 00:39:47;;;;;;;31.05;23.77;;;12.30;83.70;;;10.91;100.00;96443.59;5005483;28;20045;-71
2022/10/20 00:42:17;;;;;;;30.77;24.50;;;12.30;83.50;;;10.91;100.00;96451.50;5004350;28;20125;-71
2022/10/20 00:44:55;;;;;;;34.07;25.70;;;12.30;83.40;;;10.91;100.00;96447.06;5002499;28;20033;-70
2022/10/20 00:47:39;;;;;;;32.63;24.95;;;12.40;83.30;;;10.93;100.00;96447.69;5008230;28;20034;-71
2022/10/20 00:50:26;;;;;;;30.75;25.50;;;12.40;83.20;;;10.94;100.00;96441.44;5000077;28;20030;-72
2022/10/20 00:52:53;;;;;;;33.58;24.67;;;12.40;83.10;;;10.94;100.00;96436.16;4970735;28;20042;-71
2022/10/20 00:55:26;;;;;;;30.60;24.65;;;12.40;83.00;;;10.97;100.00;96429.72;5003642;28;20072;-71
2022/10/20 00:57:53;;;;;;;28.75;25.10;;;12.40;83.00;;;10.99;100.00;96432.97;5004553;28;20029;-71
2022/10/20 01:00:18;;;;;;;30.65;26.10;;;12.40;83.00;;;11.00;100.00;96427.53;5005969;28;20034;-72
2022/10/20 01:02:44;;;;;;;32.08;24.38;;;12.50;82.90;;;10.99;100.00;96430.34;5002622;28;20092;-72
2022/10/20 01:05:11;;;;;;;31.52;25.90;;;12.40;82.90;;;10.98;100.00;96421.63;5000060;28;20069;-68
2022/10/20 01:07:36;;;;;;;33.28;25.02;;;12.40;82.90;;;10.99;100.00;96410.09;5004352;28;20041;-70
2022/10/20 01:10:03;;;;;;;28.25;25.02;;;12.40;82.90;;;10.99;100.00;96402.19;5002107;28;20455;-70
2022/10/20 01:13:09;;;;;;;30.27;25.20;;;12.40;82.80;;;10.99;100.00;96401.38;4982575;28;20033;-70
2022/10/20 01:15:57;;;;;;;32.00;25.02;;;12.40;82.70;;;10.95;100.00;96395.69;5001691;28;20030;-70
2022/10/20 01:18:56;;;;;;;33.13;25.92;;;12.40;82.90;;;10.93;100.00;96388.97;5001024;28;20048;-70
2022/10/20 01:21:39;;;;;;;34.85;26.45;;;12.40;82.90;;;10.91;100.00;96394.41;5002570;28;20030;-71
2022/10/20 01:24:22;;;;;;;34.30;25.55;;;12.30;83.00;;;10.90;100.00;96391.97;5000893;28;20129;-70
2022/10/20 01:27:54;;;;;;;37.13;25.77;;;12.40;83.10;;;10.87;100.00;96393.16;5004567;28;20057;-70
2022/10/20 01:30:21;;;;;;;30.52;26.02;;;12.40;83.30;;;10.84;100.00;96395.31;4971079;28;20049;-70
2022/10/20 01:33:05;;;;;;;33.67;25.77;;;12.30;83.30;;;10.83;100.00;96389.22;4970099;28;20030;-71
2022/10/20 01:35:40;;;;;;;38.05;25.42;;;12.20;83.20;;;10.80;100.00;96379.09;5004772;28;20122;-71
2022/10/20 01:38:42;;;;;;;29.40;24.92;;;12.20;83.40;;;10.84;100.00;96393.50;5002184;28;20034;-70
2022/10/20 01:41:19;;;;;;;29.27;23.40;;;12.20;83.20;;;10.81;100.00;96396.50;5004738;28;20575;-70
2022/10/20 01:43:45;;;;;;;32.75;23.67;;;12.30;83.00;;;10.78;100.00;96388.97;5005118;28;20029;-70
2022/10/20 01:46:11;;;;;;;29.63;22.88;;;12.20;83.00;;;10.79;100.00;96395.06;4998385;28;20046;-69
2022/10/20 01:48:39;;;;;;;28.92;23.08;;;12.20;82.90;;;10.79;100.00;96384.53;4967540;28;20038;-70
2022/10/20 01:51:05;;;;;;;31.35;22.33;;;12.30;82.80;;;10.80;100.00;96386.16;4995233;28;20074;-71
2022/10/20 01:53:30;;;;;;;27.90;23.00;;;12.20;82.60;;;10.77;100.00;96383.91;5000927;28;20442;-70
2022/10/20 01:55:57;;;;;;;34.38;22.77;;;12.20;82.70;;;10.76;100.00;96369.09;5003609;28;20172;-70
2022/10/20 01:58:57;;;;;;;29.63;22.65;;;12.20;82.50;;;10.77;100.00;96381.25;5001235;28;20036;-71
2022/10/20 02:01:53;;;;;;;28.48;21.75;;;12.20;82.40;;;10.78;100.00;96373.19;5005602;28;20042;-70
2022/10/20 02:04:24;;;;;;;27.10;20.67;;;12.20;82.30;;;10.76;100.00;96374.38;5002294;28;20044;-70
2022/10/20 02:06:57;;;;;;;29.20;20.70;;;12.20;82.20;;;10.74;100.00;96372.75;4988658;28;20061;-71
2022/10/20 02:09:35;;;;;;;27.55;20.67;;;12.20;81.90;;;10.72;100.00;96364.22;4982048;28;20410;-70
2022/10/20 02:12:05;;;;;;;29.60;20.10;;;12.20;82.00;;;10.72;100.00;96363.41;4966578;28;20034;-70
2022/10/20 02:14:34;;;;;;;28.13;20.30;;;12.20;81.80;;;10.70;100.00;96365.41;4983072;28;20026;-71
2022/10/20 02:17:03;;;;;;;28.13;20.00;;;12.20;81.60;;;10.69;100.00;96363.78;5005666;28;20161;-71
2022/10/20 02:19:33;;;;;;;27.83;20.63;;;12.20;81.70;;;10.68;100.00;96367.41;4980979;28;20034;-71
2022/10/20 02:21:59;;;;;;;30.40;19.17;;;12.20;81.70;;;10.69;100.00;96366.41;5003903;28;20148;-71
2022/10/20 02:24:33;;;;;;;25.17;18.63;;;12.20;81.60;;;10.68;100.00;96372.66;4999819;28;20030;-71
2022/10/20 02:27:01;;;;;;;28.20;18.95;;;12.10;81.50;;;10.67;100.00;96371.03;4995984;28;20037;-70
2022/10/20 02:29:28;;;;;;;22.02;18.10;;;12.10;81.40;;;10.65;100.00;96368.59;4969434;28;20042;-71
2022/10/20 02:31:54;;;;;;;22.73;17.83;;;12.10;81.40;;;10.65;100.00;96368.59;4970471;28;20030;-71
2022/10/20 02:34:20;;;;;;;25.75;19.45;;;12.10;81.40;;;10.63;100.00;96361.84;5002250;28;20030;-71
2022/10/20 02:36:46;;;;;;;28.45;18.95;;;12.10;81.50;;;10.63;100.00;96353.97;5002875;28;20121;-71
2022/10/20 02:39:12;;;;;;;27.45;18.98;;;12.10;81.40;;;10.61;100.00;96351.50;5000708;28;20065;-71
2022/10/20 02:41:37;;;;;;;28.40;18.20;;;12.10;81.50;;;10.60;100.00;96343.81;5005445;28;20109;-70
2022/10/20 02:44:04;;;;;;;26.50;18.30;;;12.10;81.40;;;10.59;100.00;96347.44;4994612;28;20185;-71
2022/10/20 02:46:29;;;;;;;22.42;16.95;;;12.10;81.30;;;10.56;100.00;96339.91;5002282;28;20077;-71
2022/10/20 02:48:55;;;;;;;21.67;16.95;;;12.10;81.20;;;10.53;100.00;96341.09;4970192;28;20134;-71
2022/10/20 02:51:21;;;;;;;25.52;17.40;;;12.00;81.00;;;10.50;100.00;96338.03;4997239;28;20076;-70
2022/10/20 02:53:47;;;;;;;28.80;16.67;;;11.90;81.10;;;10.49;100.00;96336.41;5006753;28;21701;-70
2022/10/20 02:56:12;;;;;;;25.67;16.90;;;12.00;81.20;;;10.46;100.00;96342.03;5007096;28;20222;-71
2022/10/20 02:58:38;;;;;;;24.20;17.23;;;11.90;80.90;;;10.43;100.00;96343.19;5004483;28;20116;-71
2022/10/20 03:01:04;;;;;;;22.23;16.65;;;11.80;80.80;;;10.40;100.00;96328.56;5006695;28;20125;-70
2022/10/20 03:03:30;;;;;;;23.73;17.08;;;11.80;80.70;;;10.38;100.00;96324.50;5007358;28;20046;-71
2022/10/20 03:05:55;;;;;;;24.63;17.00;;;11.90;80.70;;;10.39;100.00;96341.91;5004745;28;20300;-71
2022/10/20 03:08:22;;;;;;;23.25;16.95;;;11.90;80.70;;;10.36;100.00;96335.19;5005088;28;20093;-71
2022/10/20 03:10:47;;;;;;;26.17;16.55;;;11.80;80.90;;;10.36;100.00;96337.84;5005888;28;20044;-71
2022/10/20 03:13:14;;;;;;;27.00;18.30;;;11.80;81.00;;;10.35;100.00;96328.31;5001987;28;20117;-69
2022/10/20 03:15:40;;;;;;;25.17;18.65;;;11.80;80.90;;;10.33;100.00;96332.94;5010977;28;20092;-69
2022/10/20 03:18:06;;;;;;;26.65;17.17;;;11.80;80.90;;;10.32;100.00;96331.31;5006692;28;20038;-70
2022/10/20 03:20:32;;;;;;;22.75;16.30;;;11.80;80.60;;;10.31;100.00;96328.88;5003722;28;20029;-70
2022/10/20 03:22:58;;;;;;;27.15;17.25;;;11.70;80.60;;;10.28;100.00;96324.78;4998669;28;20029;-71
2022/10/20 03:25:23;;;;;;;26.38;17.33;;;11.70;80.50;;;10.25;100.00;96325.16;5007070;28;20113;-72
2022/10/20 03:27:49;;;;;;;27.05;17.60;;;11.70;80.70;;;10.22;100.00;96328.16;5007930;28;20113;-72
2022/10/20 03:30:15;;;;;;;26.58;17.20;;;11.70;80.50;;;10.22;100.00;96333.41;5010416;28;22254;-71
2022/10/20 03:32:41;;;;;;;30.80;17.77;;;11.60;80.40;;;10.21;100.00;96331.78;4998913;28;20026;-71
2022/10/20 03:35:07;;;;;;;23.42;16.70;;;11.60;80.50;;;10.19;100.00;96336.38;5006790;28;20060;-71
2022/10/20 03:37:33;;;;;;;24.00;15.48;;;11.60;80.50;;;10.21;100.00;96344.09;5010687;28;20052;-71
2022/10/20 03:39:58;;;;;;;25.40;16.02;;;11.70;80.40;;;10.21;100.00;96350.19;5003040;28;20581;-71
2022/10/20 03:42:24;;;;;;;24.85;16.02;;;11.70;80.10;;;10.21;100.00;96347.56;5004136;28;20536;-74
2022/10/20 03:44:50;;;;;;;21.50;15.23;;;11.70;79.90;;;10.20;100.00;96343.25;5008583;28;20516;-71
2022/10/20 03:47:16;;;;;;;27.17;15.40;;;11.70;79.80;;;10.21;100.00;96344.91;5006194;28;20650;-70
2022/10/20 03:49:41;;;;;;;27.80;15.80;;;11.70;79.80;;;10.19;100.00;96346.06;5007640;28;20413;-71
2022/10/20 03:52:07;;;;;;;23.75;15.80;;;11.70;79.80;;;10.17;100.00;96343.59;5007771;28;20604;-71
2022/10/20 03:54:34;;;;;;;20.73;14.82;;;11.60;79.60;;;10.14;100.00;96346.59;5005802;28;20116;-71
2022/10/20 03:57:00;;;;;;;23.08;15.27;;;11.60;79.80;;;10.13;100.00;96339.69;5004672;28;20052;-71
2022/10/20 03:59:26;;;;;;;25.33;15.18;;;11.60;79.70;;;10.10;100.00;96332.19;5004726;28;20514;-71
2022/10/20 04:01:52;;;;;;;22.88;14.10;;;11.60;79.70;;;10.08;100.00;96323.66;5009410;28;20121;-71
2022/10/20 04:04:18;;;;;;;21.42;13.32;;;11.50;79.40;;;10.06;100.00;96333.53;4975348;28;20108;-71
2022/10/20 04:06:44;;;;;;;22.20;14.15;;;11.50;79.40;;;10.02;100.00;96324.38;5010267;28;20478;-71
2022/10/20 04:09:09;;;;;;;20.20;13.82;;;11.50;79.60;;;10.00;100.00;96327.19;5001679;28;20509;-71
2022/10/20 04:11:35;;;;;;;26.25;14.93;;;11.50;79.60;;;9.99;100.00;96327.38;5008038;28;20109;-71
2022/10/20 04:14:01;;;;;;;21.25;13.25;;;11.50;79.60;;;9.96;100.00;96335.63;4999291;28;20550;-71
2022/10/20 04:16:27;;;;;;;26.08;13.70;;;11.50;79.60;;;9.96;100.00;96325.09;5007619;28;20034;-71
2022/10/20 04:18:53;;;;;;;21.65;14.23;;;11.40;79.70;;;9.93;100.00;96322.81;4999509;28;20061;-71
2022/10/20 04:21:18;;;;;;;22.52;13.30;;;11.50;79.70;;;9.91;100.00;96322.19;5008708;28;20034;-71
2022/10/20 04:23:44;;;;;;;18.27;13.43;;;11.40;79.30;;;9.89;100.00;96329.44;5000315;28;20497;-67
2022/10/20 04:26:11;;;;;;;22.00;13.07;;;11.30;79.20;;;9.88;100.00;96327.78;5008245;28;20097;-68
2022/10/20 04:28:37;;;;;;;20.75;13.48;;;11.40;79.00;;;9.86;100.00;96329.78;5005794;28;20049;-69
2022/10/20 04:31:04;;;;;;;18.30;13.15;;;11.30;79.10;;;9.85;100.00;96320.28;5008602;28;20037;-66
2022/10/20 04:33:29;;;;;;;21.55;12.70;;;11.40;79.00;;;9.85;100.00;96317.66;5003948;28;20037;-70
2022/10/20 04:35:59;;;;;;;19.92;12.55;;;11.40;79.30;;;9.86;100.00;96320.09;5008428;28;20050;-70
2022/10/20 04:38:25;;;;;;;17.83;11.70;;;11.30;79.10;;;9.83;100.00;96321.28;5001962;28;20026;-70
2022/10/20 04:40:58;;;;;;;17.35;12.13;;;11.30;79.00;;;9.83;100.00;96309.94;5007112;28;20132;-70
2022/10/20 04:43:24;;;;;;;19.10;12.85;;;11.30;79.30;;;9.83;100.00;96312.56;4997939;28;20597;-71
2022/10/20 04:45:50;;;;;;;21.73;13.00;;;11.40;79.20;;;9.80;100.00;96316.38;4996214;28;20046;-69
2022/10/20 04:48:15;;;;;;;21.40;13.50;;;11.40;79.20;;;9.79;100.00;96312.13;5007827;28;20044;-71
2022/10/20 04:50:41;;;;;;;21.05;14.10;;;11.30;79.30;;;9.75;100.00;96302.16;5005365;28;20120;-70
2022/10/20 04:53:07;;;;;;;22.58;13.23;;;11.30;79.40;;;9.77;100.00;96300.16;5004953;28;20395;-67
2022/10/20 04:55:33;;;;;;;23.65;13.02;;;11.30;79.50;;;9.77;100.00;96300.16;5005383;28;20117;-69
2022/10/20 04:57:59;;;;;;;24.45;12.43;;;11.30;79.10;;;9.73;100.00;96294.44;4999613;28;20044;-69
2022/10/20 05:00:25;;;;;;;21.35;12.25;;;11.20;79.10;;;9.72;100.00;96300.69;5006051;28;20089;-69
2022/10/20 05:02:50;;;;;;;20.05;12.20;;;11.20;78.90;;;9.69;100.00;96297.59;5002386;28;20126;-66
2022/10/20 05:05:16;;;;;;;17.63;12.35;;;11.20;79.00;;;9.68;100.00;96296.78;5005796;28;20085;-65
2022/10/20 05:07:42;;;;;;;19.83;12.68;;;11.20;79.00;;;9.65;100.00;96299.75;5007210;28;20034;-65
2022/10/20 05:10:08;;;;;;;21.55;13.40;;;11.20;79.10;;;9.62;100.00;96297.50;5006189;28;20057;-66
2022/10/20 05:12:34;;;;;;;20.25;12.90;;;11.10;79.00;;;9.63;100.00;96298.31;4999015;28;20017;-68
2022/10/20 05:14:59;;;;;;;17.83;12.50;;;11.10;78.90;;;9.63;100.00;96293.06;5006594;28;20030;-64
2022/10/20 05:17:27;;;;;;;20.30;12.07;;;11.10;78.80;;;9.61;100.00;96295.06;5007447;28;20061;-63
2022/10/20 05:19:53;;;;;;;23.65;12.77;;;11.10;78.90;;;9.58;100.00;96290.97;5002053;28;20092;-66
2022/10/20 05:22:19;;;;;;;22.20;11.75;;;11.10;78.90;;;9.58;100.00;96290.16;5001041;28;20113;-67
2022/10/20 05:24:45;;;;;;;15.95;11.60;;;11.10;79.00;;;9.58;100.00;96290.16;5006292;28;20062;-67
2022/10/20 05:27:10;;;;;;;16.50;10.90;;;11.10;79.10;;;9.57;100.00;96289.34;5005163;28;20509;-67
2022/10/20 05:29:36;;;;;;;20.27;11.63;;;11.10;78.90;;;9.59;100.00;96281.28;5007980;28;20546;-68
2022/10/20 05:32:02;;;;;;;17.35;11.38;;;11.10;78.80;;;9.58;100.00;96280.47;5006159;28;20072;-67
2022/10/20 05:34:28;;;;;;;17.35;11.65;;;11.10;78.90;;;9.58;100.00;96285.72;5007151;28;20094;-66
2022/10/20 05:36:53;;;;;;;17.58;11.80;;;11.10;78.60;;;9.58;100.00;96279.66;4981081;28;20746;-66
2022/10/20 05:39:19;;;;;;;18.50;11.98;;;11.10;78.60;;;9.57;100.00;96286.72;5004675;28;20076;-67
2022/10/20 05:41:45;;;;;;;17.17;10.95;;;11.10;78.50;;;9.57;100.00;96286.72;4998382;28;20486;-67
2022/10/20 05:44:11;;;;;;;21.05;12.27;;;11.10;78.50;;;9.57;100.00;96291.97;5002345;28;20517;-64
2022/10/20 05:46:40;;;;;;;20.20;11.70;;;11.10;78.60;;;9.57;100.00;96289.34;5007138;28;20118;-66
2022/10/20 05:49:05;;;;;;;18.67;11.02;;;11.10;78.60;;;9.57;100.00;96293.78;5006944;28;20046;-65
2022/10/20 05:51:34;;;;;;;18.45;11.13;;;11.10;78.40;;;9.60;100.00;96296.84;5004559;28;20032;-66
2022/10/20 05:53:59;;;;;;;25.90;12.70;;;11.10;78.60;;;9.60;100.00;96304.75;4987377;28;20061;-68
2022/10/20 05:56:26;;;;;;;21.63;12.60;;;11.10;78.40;;;9.58;100.00;96295.41;5003742;28;20182;-68
2022/10/20 05:58:52;;;;;;;23.63;13.13;;;11.10;78.60;;;9.54;100.00;96291.50;5004754;28;20030;-67
2022/10/20 06:01:23;;;;;;;23.08;12.82;;;11.10;78.90;;;9.50;100.00;96283.16;5006906;28;20143;-68
2022/10/20 06:03:52;;;;;;;23.15;13.35;;;11.00;79.10;;;9.49;100.00;96294.66;5001325;28;20095;-68
2022/10/20 06:06:19;;;;;;;20.42;13.38;;;11.10;80.00;;;9.52;100.00;96286.44;5005628;28;20044;-68
2022/10/20 06:08:45;;;;;;;21.80;12.98;;;11.10;80.10;;;9.53;100.00;96277.56;5006541;28;20040;-68
2022/10/20 06:11:11;;;;;;;22.83;12.88;;;11.10;79.70;;;9.53;100.00;96282.81;5007249;28;20046;-68
2022/10/20 06:13:37;;;;;;;21.58;13.20;;;11.10;79.60;;;9.54;100.00;96284.44;5003629;28;20414;-68
2022/10/20 06:16:11;;;;;;;19.83;12.70;;;11.10;79.50;;;9.54;100.00;96284.44;5000457;28;20046;-68
2022/10/20 06:18:41;;;;;;;23.73;12.38;;;11.20;79.10;;;9.55;100.00;96286.06;5005770;28;20038;-70
2022/10/20 06:21:27;;;;;;;23.35;12.95;;;11.20;79.20;;;9.57;100.00;96297.22;5006494;28;20129;-68
2022/10/20 06:23:53;;;;;;;26.27;12.48;;;11.20;79.10;;;9.57;100.00;96294.59;5004460;28;20455;-68
2022/10/20 06:26:22;;;;;;;18.20;11.65;;;11.10;78.70;;;9.58;100.00;96283.09;5004996;28;20041;-69
2022/10/20 06:28:50;;;;;;;19.83;11.77;;;11.20;78.90;;;9.62;100.00;96281.75;5008789;28;20054;-68
2022/10/20 06:31:37;;;;;;;26.70;13.05;;;11.30;79.30;;;9.64;100.00;96279.75;5010015;28;20140;-68
2022/10/20 06:34:05;;;;;;;19.85;12.27;;;11.30;78.80;;;9.66;100.00;96297.94;5009624;28;20050;-67
2022/10/20 06:36:30;;;;;;;24.83;12.93;;;11.40;79.10;;;9.65;100.00;96289.25;5001978;28;20033;-68
2022/10/20 06:38:57;;;;;;;20.13;11.95;;;11.30;78.70;;;9.65;100.00;96291.88;4991346;28;20181;-68
2022/10/20 06:41:24;;;;;;;20.63;13.02;;;11.30;78.40;;;9.63;100.00;96287.81;5009030;28;20068;-68
2022/10/20 06:43:56;;;;;;;18.98;12.05;;;11.20;78.70;;;9.61;100.00;96282.72;4988275;28;20517;-67
2022/10/20 06:46:22;;;;;;;17.02;11.27;;;11.20;78.30;;;9.61;100.00;96282.72;5007302;28;20454;-68
2022/10/20 06:48:48;;;;;;;20.58;12.48;;;11.20;78.40;;;9.63;100.00;96288.63;5010310;28;20073;-68
2022/10/20 06:51:17;;;;;;;19.92;12.00;;;11.20;78.40;;;9.66;100.00;96293.50;5003990;28;20126;-67
2022/10/20 06:53:43;;;;;;;18.15;11.02;;;11.40;79.10;;;9.69;100.00;96287.91;5004855;28;20084;-66
2022/10/20 06:56:14;;;;;;;20.20;12.05;;;11.40;78.50;;;9.71;100.00;96283.28;5010257;28;20362;-65
2022/10/20 06:58:41;;;;;;;20.20;12.07;;;11.40;78.10;;;9.75;100.00;96291.66;5007164;28;20038;-66
2022/10/20 07:01:13;;;;;;;18.88;12.70;;;11.50;78.40;;;9.80;100.00;96284.84;5009632;28;20042;-66
2022/10/20 07:03:39;;;;;;;22.20;13.05;;;11.60;78.60;;;9.87;100.00;96292.00;5009219;28;20038;-66
2022/10/20 07:06:06;;;;;;;20.00;11.40;;;11.70;78.50;;;9.94;100.00;96293.72;5002466;28;20053;-67
2022/10/20 07:08:32;;;;;;;21.67;12.15;;;11.80;78.00;;;9.97;100.00;96284.69;5009102;28;20038;-66
2022/10/20 07:11:06;;;;;;;20.15;12.32;;;11.80;77.70;;;10.00;100.00;96279.06;5004648;28;20029;-66
2022/10/20 07:13:32;;;;;;;21.23;12.25;;;11.80;77.70;;;10.07;100.00;96279.97;5009325;28;20041;-67
2022/10/20 07:15:58;;;;;;;20.73;11.90;;;11.90;77.60;;;10.11;100.00;96275.97;5006600;28;20037;-67
2022/10/20 07:18:25;;;;;;;22.88;12.90;;;11.90;77.90;;;10.13;100.00;96279.25;5006040;28;20038;-66
2022/10/20 07:20:54;;;;;;;17.52;12.45;;;11.90;77.30;;;10.14;100.00;96276.44;5010605;28;20034;-66
2022/10/20 07:23:20;;;;;;;20.25;12.95;;;11.90;77.50;;;10.17;100.00;96274.44;5008071;28;20065;-67
2022/10/20 07:25:45;;;;;;;21.83;13.23;;;11.90;77.80;;;10.20;100.00;96272.28;5004275;28;20057;-67
2022/10/20 07:28:11;;;;;;;18.85;12.50;;;12.10;78.00;;;10.26;100.00;96276.84;5005253;28;20038;-66
2022/10/20 07:30:39;;;;;;;20.15;12.63;;;12.10;77.70;;;10.35;100.00;96275.72;5010313;28;20058;-67
2022/10/20 07:33:05;;;;;;;19.27;11.65;;;12.20;77.90;;;10.43;100.00;96274.84;5009615;28;20030;-67
2022/10/20 07:35:30;;;;;;;17.48;12.80;;;12.30;77.00;;;10.42;100.00;96274.00;5006019;28;20521;-67
2022/10/20 07:37:56;;;;;;;21.77;12.40;;;12.30;77.00;;;10.51;100.00;96268.66;5007588;28;20065;-67
2022/10/20 07:40:22;;;;;;;21.17;12.40;;;12.40;77.00;;;10.59;100.00;96286.94;5008305;28;20038;-69
2022/10/20 07:42:48;;;;;;;20.73;12.05;;;12.50;76.20;;;10.62;100.00;96273.41;5009781;28;20129;-67
2022/10/20 07:45:13;;;;;;;18.50;11.15;;;12.60;75.20;;;10.62;100.00;96273.41;5010074;28;20057;-65
2022/10/20 07:47:41;;;;;;;18.85;11.88;;;12.50;75.40;;;10.69;100.00;96279.59;5008378;28;20092;-68
2022/10/20 07:50:08;;;;;;;18.25;11.10;;;12.60;75.30;;;10.76;100.00;96275.22;5008641;28;20038;-68
2022/10/20 07:52:34;;;;;;;18.63;10.75;;;12.70;74.90;;;10.82;100.00;96263.94;5004322;28;20037;-69
2022/10/20 07:55:00;;;;;;;18.05;10.25;;;12.80;74.60;;;10.87;100.00;96274.75;5009911;28;20549;-63
2022/10/20 07:57:25;;;;;;;19.13;10.57;;;12.80;73.90;;;10.96;100.00;96275.44;5006340;28;20062;-67
2022/10/20 07:59:51;;;;;;;18.52;11.80;;;13.10;73.50;;;11.03;100.00;96271.84;5009252;28;20054;-70
2022/10/20 08:02:17;;;;;;;15.73;10.43;;;13.10;73.40;;;11.12;100.00;96267.28;5007903;28;20113;-68
2022/10/20 08:04:44;;;;;;;24.48;11.38;;;13.10;73.10;;;11.18;100.00;96268.34;5008744;28;20050;-68
2022/10/20 08:07:10;;;;;;;18.25;10.80;;;13.20;72.70;;;11.22;100.00;96264.34;5008701;28;20125;-68
2022/10/20 08:09:36;;;;;;;17.75;10.32;;;13.20;72.50;;;11.28;100.00;96264.38;5007703;28;20426;-71
2022/10/20 08:12:02;;;;;;;21.85;11.88;;;13.30;72.50;;;11.32;100.00;96272.75;5007599;28;20092;-68
2022/10/20 08:14:32;;;;;;;24.73;13.95;;;13.30;72.60;;;11.40;100.00;96267.34;5007820;28;20092;-68
2022/10/20 08:16:58;;;;;;;19.27;11.57;;;13.40;72.80;;;11.43;100.00;96259.06;5002595;28;20459;-68
2022/10/20 08:19:25;;;;;;;14.63;9.60;;;13.40;72.40;;;11.47;100.00;96262.94;5008390;28;20521;-68
2022/10/20 08:21:51;;;;;;;16.30;10.98;;;13.50;72.30;;;11.48;100.00;96254.03;5007359;28;20494;-69
2022/10/20 08:24:16;;;;;;;15.80;11.43;;;13.50;72.20;;;11.52;100.00;96255.25;4988126;28;20040;-72
2022/10/20 08:26:42;;;;;;;13.85;9.55;;;13.50;71.90;;;11.54;100.00;96257.72;5005300;28;20089;-69
2022/10/20 08:29:08;;;;;;;16.42;9.98;;;13.50;71.70;;;11.59;100.00;96256.16;5000627;28;20100;-70
2022/10/20 08:31:34;;;;;;;12.90;9.70;;;13.60;71.50;;;11.62;100.00;96247.84;5005796;28;20065;-71
2022/10/20 08:33:59;;;;;;;15.65;9.98;;;13.60;71.30;;;11.68;100.00;96258.63;5003303;28;20061;-69
2022/10/20 08:36:27;;;;;;;13.00;9.68;;;13.60;71.00;;;11.68;100.00;96248.09;5006551;28;20131;-69
2022/10/20 08:38:53;;;;;;;16.27;9.98;;;13.60;70.60;;;11.71;100.00;96245.88;5007842;28;20103;-67
2022/10/20 08:41:20;;;;;;;13.50;9.02;;;13.60;70.90;;;11.75;100.00;96248.94;4999797;28;20208;-68
2022/10/20 08:43:48;;;;;;;15.10;9.82;;;13.70;71.00;;;11.76;100.00;96250.56;5000908;28;20037;-67
2022/10/20 08:46:15;;;;;;;11.75;8.80;;;13.70;70.40;;;11.83;100.00;96256.75;4999723;28;20034;-68
2022/10/20 08:48:41;;;;;;;12.20;8.43;;;13.90;70.60;;;11.95;100.00;96250.72;4986331;28;20042;-68
2022/10/20 08:51:21;;;;;;;14.02;8.77;;;14.40;68.40;;;12.13;100.00;96244.16;4975693;28;20129;-68
2022/10/20 08:53:49;;;;;;;11.15;8.18;;;15.10;67.50;;;12.42;100.00;96243.88;4998448;28;20446;-69
2022/10/20 08:56:14;;;;;;;10.40;7.75;;;16.00;63.00;;;12.68;100.00;96232.63;4999787;28;20039;-66
2022/10/20 08:58:45;;;;;;;13.02;7.90;;;16.60;61.40;;;13.12;100.00;96236.56;5004540;28;20053;-67
2022/10/20 09:01:40;;;;;;;10.68;7.30;;;17.70;58.50;;;13.73;94.13;96224.00;5005492;28;20049;-68
2022/10/20 09:04:17;;;;;;;10.40;6.38;;;18.90;54.60;;;14.30;93.79;96217.16;4993027;28;20057;-68
2022/10/20 09:06:43;;;;;;;11.23;6.93;;;19.80;51.50;;;14.78;95.75;96222.06;5000710;28;20030;-67
2022/10/20 09:09:15;;;;;;;7.90;6.32;;;20.00;50.60;;;15.13;89.69;96213.69;4997704;28;20087;-67
2022/10/20 09:11:41;;;;;;;9.00;5.50;;;19.90;50.70;;;15.38;91.28;96221.66;4989407;28;20041;-68
2022/10/20 09:14:08;;;;;;;10.15;6.25;;;20.00;50.40;;;15.65;89.39;96217.81;5006577;28;20781;-69
2022/10/20 09:16:37;;;;;;;9.07;5.97;;;20.40;50.30;;;15.97;87.66;96215.88;4986339;28;20120;-67
2022/10/20 09:19:10;;;;;;;8.73;5.72;;;21.10;48.20;;;16.35;85.35;96207.72;4996757;28;20536;-69
2022/10/20 09:21:36;;;;;;;7.60;5.70;;;22.10;45.00;;;16.78;84.67;96217.41;4987618;28;20502;-70
2022/10/20 09:24:04;;;;;;;7.68;4.97;;;23.50;43.10;;;17.19;82.06;96208.63;4983203;28;20123;-68
2022/10/20 09:26:44;;;;;;;10.15;6.22;;;24.50;41.30;;;17.72;74.62;96195.34;5005692;28;20038;-69
2022/10/20 09:29:16;;;;;;;11.25;5.65;;;25.70;38.10;;;18.20;79.59;96194.25;4993562;28;20056;-70
2022/10/20 09:31:46;;;;;;;9.63;6.82;;;26.70;36.30;;;18.74;78.82;96197.50;5006350;28;20038;-68
2022/10/20 09:34:32;;;;;;;7.93;5.03;;;27.70;34.80;;;19.27;69.76;96193.66;5007702;28;20057;-67
2022/10/20 09:37:06;;;;;;;10.65;6.20;;;28.50;33.20;;;19.72;69.44;96188.28;5002684;28;20036;-68
2022/10/20 09:39:46;;;;;;;6.25;4.80;;;29.40;31.70;;;20.30;66.91;96196.81;5003729;28;20040;-67
2022/10/20 09:42:34;;;;;;;7.63;4.68;;;30.40;30.60;;;20.80;72.60;96207.31;5004691;28;20034;-68
2022/10/20 09:45:15;;;;;;;8.65;3.67;;;31.50;28.70;;;21.32;66.01;96207.63;5003281;28;20037;-67
2022/10/20 09:47:45;;;;;;;10.40;4.47;;;31.60;28.00;;;21.59;64.39;96206.78;5002787;28;20502;-66
2022/10/20 09:50:18;;;;;;;7.03;4.13;;;31.30;28.10;;;21.93;61.28;96205.41;4986442;28;20401;-67
2022/10/20 09:52:46;;;;;;;6.70;4.05;;;32.10;27.60;;;22.36;67.03;96198.19;4991712;28;20046;-68
2022/10/20 09:55:35;;;;;;;5.95;4.13;;;32.80;26.60;;;22.78;56.90;96194.59;4993578;28;20034;-68
2022/10/20 09:58:03;;;;;;;4.30;3.85;;;33.20;26.20;;;23.14;62.83;96187.47;5002195;28;20450;-64
2022/10/20 10:00:33;;;;;;;7.47;4.20;;;33.60;26.00;;;23.42;56.96;96183.47;5002971;28;20048;-71
2022/10/20 10:03:22;;;;;;;5.78;3.85;;;34.00;25.30;;;23.95;51.79;96175.94;5000072;28;20053;-66
2022/10/20 10:05:56;;;;;;;5.70;3.50;;;35.00;24.40;;;24.39;52.75;96171.53;5001005;28;20041;-69
2022/10/20 10:08:39;;;;;;;6.70;4.07;;;34.50;24.50;;;24.50;52.74;96171.53;4981072;28;20046;-69
2022/10/20 10:11:16;;;;;;;7.03;3.83;;;33.60;25.80;;;24.53;51.27;96165.59;4984324;28;20141;-69